VILK/LKO METAR and TAF weather

Enter ICAO airport designator
Station Type Date Time Source
VILK METAR 2019/12/11 12:00 UTC NOAA

VILK 111200Z 00000KT 2000 HZ NSC 19/13 Q1012 NOSIG


Station Type Date Time Source
VILK Decoded METAR 2019/12/11 12:00 UTC NOAA

Lucknow / Amausi, India (VILK) 26-45N 080-53E 128M
Dec 11, 2019 - 07:00 AM EST / 2019.12.11 1200 UTC
Wind: Calm:0
Visibility: 1 mile(s):0
Weather: haze
Temperature: 66 F (19 C)
Dew Point: 55 F (13 C)
Relative Humidity: 68%
Pressure (altimeter): 29.88 in. Hg (1012 hPa)
ob: VILK 111200Z 00000KT 2000 HZ NSC 19/13 Q1012 NOSIG
cycle: 12

Station Type Date Time Source
VILK TAF 2019/12/11 12:18 UTC NOAA

TAF VILK 111100Z 1112/1218 32003KT 2000 HZ BR NSC
BECMG 1117/1119 03005KT 1500 BR FEW020 SCT100
BECMG 1200/1202 90006KT 0800 FG SCT100
BECMG 1205/1207 1500 BR HZ FEW020 SCT100
TEMPO 1208/1212 -RA -TSRA FEW030CB OVC090
BECMG 1214/1216 2000 BR FEW020 SCT100

Example: see airport list